createdAt,value
2019-03-23T00:02:00.739Z,34.70
2019-03-23T00:04:28.296Z,32.80
2019-03-23T00:06:55.844Z,31.15
2019-03-23T00:09:23.352Z,37.88
2019-03-23T00:11:50.899Z,34.60
2019-03-23T00:14:18.382Z,34.88
2019-03-23T00:16:45.838Z,35.92
2019-03-23T00:19:13.312Z,37.08
2019-03-23T00:21:40.742Z,39.70
2019-03-23T00:24:08.282Z,39.80
2019-03-23T00:26:35.842Z,37.13
2019-03-23T00:29:03.380Z,39.10
2019-03-23T00:31:31.027Z,39.48
2019-03-23T00:33:58.608Z,37.45
2019-03-23T00:36:26.052Z,38.80
2019-03-23T00:38:53.501Z,45.28
2019-03-23T00:41:20.850Z,41.28
2019-03-23T00:43:48.294Z,40.12
2019-03-23T00:46:15.834Z,39.55
2019-03-23T00:48:43.280Z,36.20
2019-03-23T00:51:10.734Z,37.35
2019-03-23T00:53:38.183Z,39.27
2019-03-23T00:56:05.729Z,39.33
2019-03-23T00:58:33.178Z,37.05
2019-03-23T01:01:00.820Z,34.85
2019-03-23T01:03:28.353Z,36.90
2019-03-23T01:05:56.624Z,33.98
2019-03-23T01:08:24.257Z,35.17
2019-03-23T01:10:51.800Z,38.40
2019-03-23T01:13:19.267Z,41.23
2019-03-23T01:15:48.178Z,31.00
2019-03-23T01:18:15.888Z,36.50
2019-03-23T01:20:49.525Z,43.78
2019-03-23T01:23:12.816Z,36.17
2019-03-23T01:25:40.297Z,40.12
2019-03-23T01:28:07.743Z,36.38
2019-03-23T01:30:35.194Z,34.25
2019-03-23T01:33:02.639Z,36.15
2019-03-23T01:35:29.993Z,35.40
2019-03-23T01:37:57.392Z,33.40
2019-03-23T01:40:24.842Z,32.23
2019-03-23T01:42:52.301Z,35.58
2019-03-23T01:45:19.743Z,36.23
2019-03-23T01:47:47.321Z,37.53
2019-03-23T01:50:14.884Z,39.33
2019-03-23T01:52:42.339Z,39.88
2019-03-23T01:55:10.089Z,37.95
2019-03-23T01:57:37.651Z,42.58
2019-03-23T02:00:05.878Z,37.67
2019-03-23T02:02:33.426Z,38.83
2019-03-23T02:05:00.849Z,40.58
2019-03-23T02:07:28.413Z,41.68
2019-03-23T02:09:55.853Z,40.38
2019-03-23T02:12:23.415Z,37.80
2019-03-23T02:14:50.945Z,39.45
2019-03-23T02:17:18.496Z,38.40
2019-03-23T02:19:46.061Z,39.23
2019-03-23T02:22:13.494Z,40.80
2019-03-23T02:24:40.914Z,34.48
2019-03-23T02:27:08.354Z,39.67
2019-03-23T02:29:35.872Z,40.75
2019-03-23T02:32:03.419Z,37.98
2019-03-23T02:34:30.754Z,40.50
2019-03-23T02:36:58.296Z,39.48
2019-03-23T02:39:25.734Z,36.10
2019-03-23T02:41:53.078Z,38.10
2019-03-23T02:44:20.513Z,42.10
2019-03-23T02:46:47.958Z,36.38
2019-03-23T02:49:15.394Z,40.50
2019-03-23T02:51:42.914Z,39.18
2019-03-23T02:54:10.431Z,42.33
2019-03-23T02:56:37.758Z,39.25
2019-03-23T02:59:05.102Z,40.48
2019-03-23T03:01:32.617Z,38.08
2019-03-23T03:04:00.050Z,46.50
2019-03-23T03:06:27.484Z,43.33
2019-03-23T03:08:54.995Z,40.55
2019-03-23T03:11:22.315Z,40.55
2019-03-23T03:13:49.641Z,46.90
2019-03-23T03:16:17.181Z,38.05
2019-03-23T03:18:44.508Z,42.45
2019-03-23T03:21:11.820Z,43.38
2019-03-23T03:23:39.166Z,39.83
2019-03-23T03:26:06.470Z,37.93
2019-03-23T03:28:34.235Z,36.40
2019-03-23T03:31:01.546Z,42.83
2019-03-23T03:33:28.862Z,35.45
2019-03-23T03:35:56.196Z,37.65
2019-03-23T03:38:23.507Z,46.98
2019-03-23T03:40:50.924Z,41.33
2019-03-23T03:43:18.454Z,41.95
2019-03-23T03:45:45.875Z,36.88
2019-03-23T03:48:13.275Z,42.25
2019-03-23T03:50:40.721Z,38.98
2019-03-23T03:53:08.029Z,44.25
2019-03-23T03:55:35.571Z,45.08
2019-03-23T03:58:03.106Z,44.25
2019-03-23T04:00:30.627Z,45.83
2019-03-23T04:02:58.074Z,46.63
2019-03-23T04:05:25.511Z,37.78
2019-03-23T04:07:52.935Z,42.95
2019-03-23T04:10:20.367Z,42.75
2019-03-23T04:12:47.700Z,37.65
2019-03-23T04:15:15.141Z,45.35
2019-03-23T04:17:42.765Z,37.15
2019-03-23T04:20:10.667Z,42.13
2019-03-23T04:22:38.087Z,38.85
2019-03-23T04:25:06.517Z,49.18
2019-03-23T04:27:33.877Z,42.88
2019-03-23T04:30:01.297Z,39.95
2019-03-23T04:32:28.622Z,41.53
2019-03-23T04:34:55.962Z,42.65
2019-03-23T04:37:23.698Z,42.83
2019-03-23T04:39:51.081Z,43.15
2019-03-23T04:42:18.409Z,40.25
2019-03-23T04:44:45.851Z,42.53
2019-03-23T04:47:13.161Z,38.90
2019-03-23T04:49:40.486Z,41.25
2019-03-23T04:52:07.943Z,42.35
2019-03-23T04:54:35.371Z,42.48
2019-03-23T04:57:03.194Z,44.13
2019-03-23T04:59:30.492Z,42.73
2019-03-23T05:01:57.899Z,145.07
2019-03-23T05:04:25.225Z,319.75
2019-03-23T05:06:52.642Z,65.03
2019-03-23T05:09:19.953Z,71.50
2019-03-23T05:11:47.374Z,110.08
2019-03-23T05:14:14.794Z,79.53
2019-03-23T05:16:42.121Z,130.12
2019-03-23T05:19:09.438Z,157.25
2019-03-23T05:21:36.858Z,118.05
2019-03-23T05:24:04.299Z,50.60
2019-03-23T05:26:31.594Z,326.52
2019-03-23T05:28:58.912Z,317.50
2019-03-23T05:31:26.218Z,62.10
2019-03-23T05:33:53.567Z,45.65
2019-03-23T05:36:20.965Z,43.10
2019-03-23T05:38:48.414Z,46.60
2019-03-23T05:41:15.792Z,38.80
2019-03-23T05:43:43.114Z,40.50
2019-03-23T05:46:10.537Z,41.85
2019-03-23T05:48:37.966Z,37.67
2019-03-23T05:51:05.377Z,41.50
2019-03-23T05:53:32.685Z,38.48
2019-03-23T05:56:00.005Z,37.67
2019-03-23T05:58:27.451Z,44.75
2019-03-23T06:00:54.972Z,37.13
2019-03-23T06:03:22.305Z,38.55
2019-03-23T06:05:49.632Z,39.55
2019-03-23T06:08:16.973Z,35.73
2019-03-23T06:10:44.360Z,33.18
2019-03-23T06:13:11.765Z,37.33
2019-03-23T06:15:39.201Z,38.02
2019-03-23T06:18:06.619Z,33.08
2019-03-23T06:20:33.949Z,36.20
2019-03-23T06:23:01.358Z,32.23
2019-03-23T06:25:28.793Z,32.33
2019-03-23T06:27:56.323Z,32.33
2019-03-23T06:30:23.826Z,32.27
2019-03-23T06:32:51.233Z,33.20
2019-03-23T06:35:18.647Z,30.80
2019-03-23T06:37:46.049Z,26.83
2019-03-23T06:40:13.589Z,29.30
2019-03-23T06:42:40.992Z,29.07
2019-03-23T06:45:08.841Z,29.37
2019-03-23T06:47:36.232Z,26.63
2019-03-23T06:50:04.634Z,29.70
2019-03-23T06:52:31.942Z,28.17
2019-03-23T06:54:59.240Z,29.90
2019-03-23T06:57:26.526Z,26.07
2019-03-23T06:59:53.822Z,23.50
2019-03-23T07:02:21.205Z,26.07
2019-03-23T07:04:48.700Z,23.47
2019-03-23T07:07:16.089Z,24.83
2019-03-23T07:09:43.400Z,28.60
2019-03-23T07:12:10.917Z,22.80
2019-03-23T07:14:38.236Z,24.70
2019-03-23T07:17:05.655Z,23.77
2019-03-23T07:19:32.977Z,28.40
2019-03-23T07:22:00.374Z,21.37
2019-03-23T07:24:27.681Z,21.87
2019-03-23T07:26:55.079Z,22.73
2019-03-23T07:29:22.381Z,18.83
2019-03-23T07:31:49.775Z,25.07
2019-03-23T07:34:17.083Z,23.43
2019-03-23T07:36:44.377Z,20.23
2019-03-23T07:39:11.690Z,23.87
2019-03-23T07:41:38.994Z,23.37
2019-03-23T07:44:06.297Z,21.53
2019-03-23T07:46:33.601Z,23.30
2019-03-23T07:49:00.894Z,22.33
2019-03-23T07:51:28.308Z,23.00
2019-03-23T07:53:55.588Z,20.63
2019-03-23T07:56:22.894Z,21.20
2019-03-23T07:58:50.195Z,22.00
2019-03-23T08:01:17.606Z,18.83
2019-03-23T08:03:44.908Z,25.00
2019-03-23T08:06:12.261Z,17.97
2019-03-23T08:08:39.574Z,18.00
2019-03-23T08:11:06.977Z,22.70
2019-03-23T08:13:34.414Z,21.90
2019-03-23T08:16:01.741Z,19.93
2019-03-23T08:18:29.140Z,20.00
2019-03-23T08:20:56.450Z,19.83
2019-03-23T08:23:23.754Z,21.43
2019-03-23T08:25:51.287Z,17.97
2019-03-23T08:28:18.619Z,19.57
2019-03-23T08:30:45.953Z,18.80
2019-03-23T08:33:13.393Z,16.43
2019-03-23T08:35:40.722Z,19.37
2019-03-23T08:38:08.132Z,19.70
2019-03-23T08:40:35.910Z,17.33
2019-03-23T08:43:03.678Z,18.10
2019-03-23T08:45:31.106Z,21.23
2019-03-23T08:47:58.427Z,20.37
2019-03-23T08:50:25.758Z,20.97
2019-03-23T08:52:53.091Z,18.67
2019-03-23T08:55:21.951Z,21.13
2019-03-23T08:57:49.425Z,24.37
2019-03-23T09:00:16.765Z,23.27
2019-03-23T09:02:44.278Z,22.17
2019-03-23T09:05:11.798Z,25.23
2019-03-23T09:07:39.315Z,25.90
2019-03-23T09:10:07.568Z,22.03
2019-03-23T09:12:36.061Z,26.73
2019-03-23T09:15:04.454Z,27.53
2019-03-23T09:17:31.760Z,26.77
2019-03-23T09:19:59.188Z,30.13
2019-03-23T09:22:26.588Z,28.40
2019-03-23T09:24:57.046Z,31.83
2019-03-23T09:27:23.241Z,33.93
2019-03-23T09:29:50.568Z,36.23
2019-03-23T09:32:18.189Z,38.30
2019-03-23T09:34:45.601Z,30.87
2019-03-23T09:37:12.945Z,33.00
2019-03-23T09:39:40.475Z,33.77
2019-03-23T09:42:07.799Z,31.93
2019-03-23T09:44:35.094Z,29.13
2019-03-23T09:47:02.422Z,32.50
2019-03-23T09:49:29.855Z,32.23
2019-03-23T09:51:57.276Z,32.93
2019-03-23T09:54:24.705Z,32.20
2019-03-23T09:56:52.230Z,36.47
2019-03-23T09:59:19.527Z,32.57
2019-03-23T10:01:49.713Z,32.47
2019-03-23T10:04:17.025Z,34.90
2019-03-23T10:06:44.357Z,34.20
2019-03-23T10:09:11.758Z,31.90
2019-03-23T10:11:39.073Z,28.43
2019-03-23T10:14:06.476Z,31.23
2019-03-23T10:16:33.810Z,30.23
2019-03-23T10:19:01.206Z,30.43
2019-03-23T10:21:28.615Z,31.37
2019-03-23T10:23:55.916Z,33.47
2019-03-23T10:26:23.253Z,30.60
2019-03-23T10:28:50.666Z,28.63
2019-03-23T10:31:18.058Z,27.77
2019-03-23T10:33:45.526Z,27.93
2019-03-23T10:36:12.854Z,28.90
2019-03-23T10:38:40.145Z,28.23
2019-03-23T10:41:07.460Z,28.20
2019-03-23T10:43:34.764Z,29.10
2019-03-23T10:46:02.176Z,27.00
2019-03-23T10:48:29.477Z,27.80
2019-03-23T10:50:56.804Z,25.95
2019-03-23T10:53:24.107Z,26.63
2019-03-23T10:55:51.545Z,25.55
2019-03-23T10:58:18.912Z,28.83
2019-03-23T11:00:46.336Z,26.75
2019-03-23T11:03:13.761Z,27.30
2019-03-23T11:05:41.076Z,29.25
2019-03-23T11:08:08.502Z,26.68
2019-03-23T11:10:41.710Z,28.87
2019-03-23T11:13:05.252Z,29.97
2019-03-23T11:15:32.690Z,28.62
2019-03-23T11:18:00.001Z,27.45
2019-03-23T11:20:27.294Z,33.33
2019-03-23T11:22:54.787Z,31.40
2019-03-23T11:25:22.315Z,31.73
2019-03-23T11:27:49.818Z,31.10
2019-03-23T11:30:17.279Z,30.17
2019-03-23T11:32:44.848Z,33.70
2019-03-23T11:35:12.433Z,32.53
2019-03-23T11:37:40.368Z,30.37
2019-03-23T11:40:09.065Z,33.73
2019-03-23T11:42:36.586Z,33.20
2019-03-23T11:45:05.349Z,31.63
2019-03-23T11:47:32.723Z,30.20
2019-03-23T11:50:00.068Z,34.83
2019-03-23T11:52:27.517Z,32.83
2019-03-23T11:54:54.937Z,30.43
2019-03-23T11:57:22.261Z,30.27
2019-03-23T11:59:49.597Z,32.23
2019-03-23T12:02:17.006Z,30.45
2019-03-23T12:04:44.304Z,29.87
2019-03-23T12:07:11.634Z,28.67
2019-03-23T12:09:38.919Z,31.95
2019-03-23T12:12:06.341Z,33.28
2019-03-23T12:14:33.673Z,30.23
2019-03-23T12:17:01.106Z,29.48
2019-03-23T12:19:28.425Z,31.50
2019-03-23T12:21:55.741Z,29.42
2019-03-23T12:24:23.029Z,32.90
2019-03-23T12:26:50.345Z,29.98
2019-03-23T12:29:17.663Z,29.35
2019-03-23T12:31:44.972Z,32.98
2019-03-23T12:34:12.289Z,30.17
2019-03-23T12:36:39.701Z,33.18
2019-03-23T12:39:07.127Z,30.40
2019-03-23T12:41:34.565Z,31.57
2019-03-23T12:44:02.069Z,30.97
2019-03-23T12:46:29.364Z,32.33
2019-03-23T12:48:56.784Z,31.00
2019-03-23T12:51:24.181Z,31.05
2019-03-23T12:53:51.688Z,30.02
2019-03-23T12:56:19.041Z,32.38
2019-03-23T12:58:46.577Z,34.15
2019-03-23T13:01:13.893Z,32.35
2019-03-23T13:03:41.410Z,34.65
2019-03-23T13:06:08.735Z,30.50
2019-03-23T13:08:36.054Z,33.67
2019-03-23T13:11:03.493Z,34.05
2019-03-23T13:13:30.906Z,33.88
2019-03-23T13:15:58.220Z,34.38
2019-03-23T13:18:27.411Z,35.08
2019-03-23T13:20:54.849Z,34.60
2019-03-23T13:23:22.172Z,33.35
2019-03-23T13:25:49.577Z,31.77
2019-03-23T13:28:16.992Z,33.55
2019-03-23T13:30:44.408Z,33.50
2019-03-23T13:33:11.824Z,31.68
2019-03-23T13:35:39.137Z,34.10
2019-03-23T13:38:06.466Z,35.20
2019-03-23T13:40:33.785Z,32.35
2019-03-23T13:43:03.497Z,32.53
2019-03-23T13:45:30.432Z,34.05
2019-03-23T13:47:57.846Z,34.05
2019-03-23T13:50:26.442Z,32.58
2019-03-23T13:52:53.893Z,33.88
2019-03-23T13:55:26.001Z,33.77
2019-03-23T13:57:53.411Z,36.53
2019-03-23T14:00:21.010Z,33.28
2019-03-23T14:02:48.512Z,37.42
2019-03-23T14:05:16.408Z,34.43
2019-03-23T14:07:43.889Z,32.55
2019-03-23T14:10:11.425Z,35.28
2019-03-23T14:12:38.859Z,31.33
2019-03-23T14:15:06.930Z,32.48
2019-03-23T14:17:34.225Z,32.43
2019-03-23T14:20:01.781Z,34.63
2019-03-23T14:22:29.153Z,33.57
2019-03-23T14:24:56.450Z,34.70
2019-03-23T14:27:23.768Z,34.57
2019-03-23T14:29:51.192Z,35.80
2019-03-23T14:32:18.607Z,34.97
2019-03-23T14:34:46.030Z,34.77
2019-03-23T14:37:13.341Z,37.13
2019-03-23T14:39:40.748Z,33.47
2019-03-23T14:42:08.145Z,38.30
2019-03-23T14:44:35.460Z,36.10
2019-03-23T14:47:02.874Z,38.00
2019-03-23T14:49:30.188Z,38.80
2019-03-23T14:51:57.505Z,35.73
2019-03-23T14:54:24.952Z,38.60
2019-03-23T14:56:52.372Z,37.87
2019-03-23T14:59:19.773Z,34.83
2019-03-23T15:01:47.085Z,39.80
2019-03-23T15:04:14.391Z,39.17
2019-03-23T15:06:41.676Z,38.43
2019-03-23T15:09:09.198Z,38.63
2019-03-23T15:11:36.481Z,40.83
2019-03-23T15:14:04.097Z,41.30
2019-03-23T15:16:31.508Z,39.03
2019-03-23T15:18:58.825Z,37.43
2019-03-23T15:21:26.133Z,38.63
2019-03-23T15:23:53.449Z,39.77
2019-03-23T15:26:20.852Z,38.20
2019-03-23T15:28:48.159Z,41.57
2019-03-23T15:31:15.463Z,39.27
2019-03-23T15:33:42.783Z,40.30
2019-03-23T15:36:10.191Z,37.13
2019-03-23T15:38:37.610Z,43.53
2019-03-23T15:41:05.138Z,41.07
2019-03-23T15:43:32.441Z,42.93
2019-03-23T15:46:00.256Z,41.67
2019-03-23T15:48:28.733Z,42.50
2019-03-23T15:50:56.408Z,42.20
2019-03-23T15:53:23.805Z,45.70
2019-03-23T15:55:51.838Z,43.93
2019-03-23T15:58:19.128Z,44.00
2019-03-23T16:00:46.539Z,47.80
2019-03-23T16:03:13.945Z,48.83
2019-03-23T16:05:41.350Z,44.90
2019-03-23T16:08:08.778Z,43.70
2019-03-23T16:10:36.271Z,45.57
2019-03-23T16:13:03.682Z,47.07
2019-03-23T16:15:31.099Z,43.80
2019-03-23T16:17:58.496Z,46.43
2019-03-23T16:20:25.811Z,44.60
2019-03-23T16:22:53.223Z,42.27
2019-03-23T16:25:20.644Z,41.13
2019-03-23T16:27:48.065Z,46.67
2019-03-23T16:30:20.273Z,46.00
2019-03-23T16:32:47.596Z,47.50
2019-03-23T16:35:15.013Z,45.37
2019-03-23T16:37:42.421Z,42.17
2019-03-23T16:40:10.238Z,44.47
2019-03-23T16:42:44.594Z,50.17
2019-03-23T16:45:08.182Z,42.27
2019-03-23T16:47:35.884Z,47.77
2019-03-23T16:50:04.157Z,45.67
2019-03-23T16:52:31.458Z,48.30
2019-03-23T16:54:58.765Z,44.30
2019-03-23T16:57:26.077Z,44.03
2019-03-23T16:59:53.391Z,43.90
2019-03-23T17:02:20.807Z,47.30
2019-03-23T17:04:48.205Z,47.10
2019-03-23T17:07:15.583Z,45.07
2019-03-23T17:09:42.896Z,44.03
2019-03-23T17:12:10.649Z,47.23
2019-03-23T17:14:37.994Z,45.53
2019-03-23T17:17:05.545Z,51.87
2019-03-23T17:19:32.934Z,44.70
2019-03-23T17:22:00.259Z,49.63
2019-03-23T17:24:27.666Z,44.40
2019-03-23T17:26:54.964Z,47.60
2019-03-23T17:29:22.269Z,41.47
2019-03-23T17:31:49.607Z,40.53
2019-03-23T17:34:16.912Z,41.83
2019-03-23T17:36:44.237Z,46.43
2019-03-23T17:39:11.567Z,47.73
2019-03-23T17:41:38.879Z,51.30
2019-03-23T17:44:06.276Z,54.90
2019-03-23T17:46:33.823Z,71.17
2019-03-23T17:49:01.178Z,59.97
2019-03-23T17:51:28.592Z,54.37
2019-03-23T17:53:58.805Z,48.10
2019-03-23T17:56:25.225Z,43.80
2019-03-23T17:58:52.529Z,50.43
2019-03-23T18:01:19.937Z,48.03
2019-03-23T18:03:47.384Z,45.23
2019-03-23T18:06:14.919Z,47.53
2019-03-23T18:08:42.414Z,45.10
2019-03-23T18:11:09.965Z,42.37
2019-03-23T18:13:37.421Z,40.77
2019-03-23T18:16:05.026Z,41.83
2019-03-23T18:18:32.314Z,38.73
2019-03-23T18:20:59.734Z,46.00
2019-03-23T18:23:27.016Z,39.03
2019-03-23T18:25:54.344Z,40.00
2019-03-23T18:28:21.753Z,40.13
2019-03-23T18:30:49.154Z,38.87
2019-03-23T18:33:16.659Z,36.57
2019-03-23T18:35:44.171Z,42.60
2019-03-23T18:38:11.687Z,41.10
2019-03-23T18:40:39.222Z,36.20
2019-03-23T18:43:07.180Z,42.27
2019-03-23T18:45:34.779Z,37.13
2019-03-23T18:48:02.325Z,40.50
2019-03-23T18:50:29.866Z,38.27
2019-03-23T18:52:57.290Z,38.00
2019-03-23T18:55:24.688Z,41.37
2019-03-23T18:57:52.060Z,38.60
2019-03-23T19:00:32.942Z,37.93
2019-03-23T19:03:00.818Z,37.33
2019-03-23T19:05:28.115Z,38.53
2019-03-23T19:07:55.414Z,40.20
2019-03-23T19:10:22.728Z,46.57
2019-03-23T19:12:50.373Z,53.57
2019-03-23T19:15:17.777Z,62.03
2019-03-23T19:17:45.206Z,54.40
2019-03-23T19:20:12.710Z,49.33
2019-03-23T19:22:40.025Z,52.63
2019-03-23T19:25:15.919Z,46.50
2019-03-23T19:27:36.840Z,47.97
2019-03-23T19:30:05.032Z,48.57
2019-03-23T19:32:32.362Z,43.67
2019-03-23T19:35:00.351Z,49.17
2019-03-23T19:37:27.890Z,52.23
2019-03-23T19:39:55.290Z,50.57
2019-03-23T19:42:22.592Z,70.10
2019-03-23T19:44:49.998Z,71.50
2019-03-23T19:47:17.411Z,59.70
2019-03-23T19:49:44.733Z,57.60
2019-03-23T19:52:12.111Z,51.27
2019-03-23T19:54:39.406Z,52.20
2019-03-23T19:57:06.906Z,47.70
2019-03-23T19:59:34.229Z,59.40
2019-03-23T20:02:01.641Z,56.90
2019-03-23T20:04:28.962Z,53.83
2019-03-23T20:06:56.302Z,50.53
2019-03-23T20:09:23.716Z,46.87
2019-03-23T20:11:51.022Z,51.67
2019-03-23T20:14:18.424Z,51.73
2019-03-23T20:16:45.733Z,48.73
2019-03-23T20:19:13.245Z,50.20
2019-03-23T20:21:40.558Z,50.93
2019-03-23T20:24:07.973Z,44.13
2019-03-23T20:26:35.293Z,53.50
2019-03-23T20:29:02.822Z,50.83
2019-03-23T20:31:30.213Z,53.97
2019-03-23T20:33:57.531Z,56.20
2019-03-23T20:36:24.947Z,49.50
2019-03-23T20:38:52.370Z,50.73
2019-03-23T20:41:19.677Z,52.87
2019-03-23T20:43:46.989Z,53.37
2019-03-23T20:46:14.289Z,56.53
2019-03-23T20:48:42.394Z,48.63
2019-03-23T20:51:10.385Z,54.13
2019-03-23T20:53:38.101Z,51.47
2019-03-23T20:56:05.605Z,52.80
2019-03-23T20:58:32.953Z,53.37
2019-03-23T21:01:00.256Z,54.67
2019-03-23T21:03:27.563Z,50.90
2019-03-23T21:05:54.872Z,53.67
2019-03-23T21:08:22.315Z,53.10
2019-03-23T21:10:49.731Z,55.07
2019-03-23T21:13:17.048Z,51.57
2019-03-23T21:15:45.088Z,60.97
2019-03-23T21:18:12.502Z,52.63
2019-03-23T21:20:39.919Z,50.77
2019-03-23T21:23:07.329Z,51.57
2019-03-23T21:25:34.753Z,50.67
2019-03-23T21:28:02.062Z,54.37
2019-03-23T21:30:29.503Z,57.93
2019-03-23T21:32:56.800Z,57.03
2019-03-23T21:35:24.107Z,52.43
2019-03-23T21:37:51.496Z,55.73
2019-03-23T21:40:18.907Z,60.73
2019-03-23T21:42:46.407Z,50.43
2019-03-23T21:45:14.525Z,52.83
2019-03-23T21:47:41.821Z,56.20
2019-03-23T21:50:09.871Z,55.60
2019-03-23T21:52:37.169Z,56.93
2019-03-23T21:55:05.503Z,53.00
2019-03-23T21:57:32.801Z,53.33
2019-03-23T22:00:00.158Z,63.40
2019-03-23T22:02:27.725Z,64.33
2019-03-23T22:04:55.026Z,55.63
2019-03-23T22:07:22.325Z,63.60
2019-03-23T22:09:49.728Z,64.33
2019-03-23T22:12:17.053Z,60.57
2019-03-23T22:14:44.372Z,57.93
2019-03-23T22:17:11.801Z,60.70
2019-03-23T22:19:39.128Z,58.63
2019-03-23T22:22:06.653Z,61.00
2019-03-23T22:24:34.057Z,59.10
2019-03-23T22:27:01.450Z,60.07
2019-03-23T22:29:28.871Z,59.43
2019-03-23T22:31:56.269Z,58.40
2019-03-23T22:34:23.605Z,59.47
2019-03-23T22:36:50.986Z,66.73
2019-03-23T22:39:18.301Z,67.23
2019-03-23T22:41:45.708Z,67.50
2019-03-23T22:44:13.017Z,65.33
2019-03-23T22:46:40.420Z,66.23
2019-03-23T22:49:07.837Z,68.70
2019-03-23T22:51:35.241Z,72.33
2019-03-23T22:54:02.760Z,81.83
2019-03-23T22:56:30.148Z,83.27
2019-03-23T22:58:57.456Z,73.40
2019-03-23T23:01:24.981Z,78.83
2019-03-23T23:03:52.405Z,72.80
2019-03-23T23:06:19.825Z,72.17
2019-03-23T23:08:47.136Z,77.87
2019-03-23T23:11:14.671Z,68.90
2019-03-23T23:13:42.073Z,69.57
2019-03-23T23:16:09.489Z,71.07
2019-03-23T23:18:36.781Z,69.80
2019-03-23T23:21:04.292Z,76.87
2019-03-23T23:23:31.597Z,84.63
2019-03-23T23:25:58.929Z,80.47
2019-03-23T23:28:26.245Z,81.97
2019-03-23T23:30:54.078Z,80.47
2019-03-23T23:33:21.484Z,77.57
2019-03-23T23:35:48.793Z,91.20
2019-03-23T23:38:16.213Z,92.40
2019-03-23T23:40:43.643Z,93.43
2019-03-23T23:43:10.960Z,96.63
2019-03-23T23:45:38.377Z,95.57
2019-03-23T23:48:05.786Z,93.43
2019-03-23T23:50:33.201Z,95.60
2019-03-23T23:53:00.604Z,98.03
2019-03-23T23:55:27.928Z,89.30
2019-03-23T23:57:55.249Z,92.37
